sensor_id;sensor_type;location;lat;lon;timestamp;pressure;altitude;pressure_sealevel;temperature;humidity
59877;BME280;45749;51.140;17.184;2022-10-31T00:03:48;100442.27;;;11.11;86.85
59877;BME280;45749;51.140;17.184;2022-10-31T00:06:15;100443.01;;;11.13;86.86
59877;BME280;45749;51.140;17.184;2022-10-31T00:08:47;100440.23;;;11.15;86.73
59877;BME280;45749;51.140;17.184;2022-10-31T00:11:20;100446.75;;;11.16;86.82
59877;BME280;45749;51.140;17.184;2022-10-31T00:13:46;100447.69;;;11.15;86.71
59877;BME280;45749;51.140;17.184;2022-10-31T00:16:18;100442.79;;;11.16;86.72
59877;BME280;45749;51.140;17.184;2022-10-31T00:18:54;100443.59;;;11.11;86.57
59877;BME280;45749;51.140;17.184;2022-10-31T00:21:22;100442.25;;;11.06;86.67
59877;BME280;45749;51.140;17.184;2022-10-31T00:23:49;100445.57;;;11.02;86.89
59877;BME280;45749;51.140;17.184;2022-10-31T00:26:15;100442.57;;;11.01;87.03
59877;BME280;45749;51.140;17.184;2022-10-31T00:28:42;100448.81;;;11.00;87.01
59877;BME280;45749;51.140;17.184;2022-10-31T00:31:09;100442.22;;;11.00;86.96
59877;BME280;45749;51.140;17.184;2022-10-31T00:33:37;100442.70;;;10.99;87.01
59877;BME280;45749;51.140;17.184;2022-10-31T00:36:06;100452.88;;;10.98;87.13
59877;BME280;45749;51.140;17.184;2022-10-31T00:38:33;100454.31;;;10.97;86.88
59877;BME280;45749;51.140;17.184;2022-10-31T00:40:59;100452.16;;;10.96;87.00
59877;BME280;45749;51.140;17.184;2022-10-31T00:43:25;100450.93;;;10.95;87.10
59877;BME280;45749;51.140;17.184;2022-10-31T00:45:50;100447.19;;;10.92;87.27
59877;BME280;45749;51.140;17.184;2022-10-31T00:48:16;100442.12;;;10.89;87.32
59877;BME280;45749;51.140;17.184;2022-10-31T00:50:42;100448.02;;;10.87;87.40
59877;BME280;45749;51.140;17.184;2022-10-31T00:53:08;100442.34;;;10.86;87.31
59877;BME280;45749;51.140;17.184;2022-10-31T00:55:34;100444.28;;;10.84;87.31
59877;BME280;45749;51.140;17.184;2022-10-31T00:58:00;100439.00;;;10.84;87.49
59877;BME280;45749;51.140;17.184;2022-10-31T01:00:26;100448.94;;;10.80;87.50
59877;BME280;45749;51.140;17.184;2022-10-31T01:02:52;100441.80;;;10.75;87.52
59877;BME280;45749;51.140;17.184;2022-10-31T01:05:18;100449.10;;;10.71;87.58
59877;BME280;45749;51.140;17.184;2022-10-31T01:07:45;100448.96;;;10.67;88.11
59877;BME280;45749;51.140;17.184;2022-10-31T01:10:11;100452.17;;;10.65;88.40
59877;BME280;45749;51.140;17.184;2022-10-31T01:12:42;100447.02;;;10.64;88.70
59877;BME280;45749;51.140;17.184;2022-10-31T01:15:11;100449.27;;;10.63;88.65
59877;BME280;45749;51.140;17.184;2022-10-31T01:17:38;100448.64;;;10.59;88.53
59877;BME280;45749;51.140;17.184;2022-10-31T01:20:06;100457.73;;;10.55;88.57
59877;BME280;45749;51.140;17.184;2022-10-31T01:22:33;100458.42;;;10.51;88.61
59877;BME280;45749;51.140;17.184;2022-10-31T01:24:59;100459.88;;;10.50;88.73
59877;BME280;45749;51.140;17.184;2022-10-31T01:27:25;100463.08;;;10.48;88.66
59877;BME280;45749;51.140;17.184;2022-10-31T01:29:51;100458.64;;;10.48;88.53
59877;BME280;45749;51.140;17.184;2022-10-31T01:32:17;100457.68;;;10.49;88.39
59877;BME280;45749;51.140;17.184;2022-10-31T01:34:43;100460.59;;;10.52;88.30
59877;BME280;45749;51.140;17.184;2022-10-31T01:37:09;100459.48;;;10.49;88.25
59877;BME280;45749;51.140;17.184;2022-10-31T01:39:35;100452.73;;;10.45;88.35
59877;BME280;45749;51.140;17.184;2022-10-31T01:42:02;100455.73;;;10.46;88.36
59877;BME280;45749;51.140;17.184;2022-10-31T01:47:17;100454.61;;;10.37;88.34
59877;BME280;45749;51.140;17.184;2022-10-31T01:49:56;100453.77;;;10.37;88.20
59877;BME280;45749;51.140;17.184;2022-10-31T01:52:30;100451.34;;;10.33;88.17
59877;BME280;45749;51.140;17.184;2022-10-31T01:55:03;100453.91;;;10.28;88.20
59877;BME280;45749;51.140;17.184;2022-10-31T01:57:34;100452.90;;;10.23;88.28
59877;BME280;45749;51.140;17.184;2022-10-31T02:00:04;100454.24;;;10.16;88.49
59877;BME280;45749;51.140;17.184;2022-10-31T02:02:32;100457.00;;;10.15;88.49
59877;BME280;45749;51.140;17.184;2022-10-31T02:05:00;100460.36;;;10.17;88.36
59877;BME280;45749;51.140;17.184;2022-10-31T02:07:33;100463.23;;;10.14;88.49
59877;BME280;45749;51.140;17.184;2022-10-31T02:10:02;100466.16;;;10.09;88.52
59877;BME280;45749;51.140;17.184;2022-10-31T02:12:30;100471.08;;;10.08;88.51
59877;BME280;45749;51.140;17.184;2022-10-31T02:14:58;100468.65;;;10.05;88.54
59877;BME280;45749;51.140;17.184;2022-10-31T02:17:25;100466.85;;;10.05;88.44
59877;BME280;45749;51.140;17.184;2022-10-31T02:20:10;100474.40;;;10.04;88.40
59877;BME280;45749;51.140;17.184;2022-10-31T02:35:17;100473.97;;;9.98;88.48
59877;BME280;45749;51.140;17.184;2022-10-31T02:40:36;100474.74;;;9.93;88.42
59877;BME280;45749;51.140;17.184;2022-10-31T02:43:17;100481.54;;;9.90;88.43
59877;BME280;45749;51.140;17.184;2022-10-31T02:46:07;100479.38;;;9.89;88.46
59877;BME280;45749;51.140;17.184;2022-10-31T02:48:36;100475.16;;;9.86;88.58
59877;BME280;45749;51.140;17.184;2022-10-31T02:51:04;100478.47;;;9.83;88.49
59877;BME280;45749;51.140;17.184;2022-10-31T02:53:34;100479.06;;;9.81;88.58
59877;BME280;45749;51.140;17.184;2022-10-31T02:56:07;100477.27;;;9.81;88.57
59877;BME280;45749;51.140;17.184;2022-10-31T02:58:59;100474.84;;;9.78;88.55
59877;BME280;45749;51.140;17.184;2022-10-31T03:04:29;100474.28;;;9.73;88.72
59877;BME280;45749;51.140;17.184;2022-10-31T03:09:55;100477.08;;;9.65;88.82
59877;BME280;45749;51.140;17.184;2022-10-31T03:12:29;100477.76;;;9.61;89.05
59877;BME280;45749;51.140;17.184;2022-10-31T03:17:50;100478.16;;;9.55;89.13
59877;BME280;45749;51.140;17.184;2022-10-31T03:20:22;100486.73;;;9.51;89.03
59877;BME280;45749;51.140;17.184;2022-10-31T03:22:51;100492.20;;;9.48;89.06
59877;BME280;45749;51.140;17.184;2022-10-31T03:25:18;100493.33;;;9.44;89.20
59877;BME280;45749;51.140;17.184;2022-10-31T03:27:44;100493.64;;;9.39;89.11
59877;BME280;45749;51.140;17.184;2022-10-31T03:30:13;100499.10;;;9.36;89.11
59877;BME280;45749;51.140;17.184;2022-10-31T03:32:51;100496.30;;;9.32;89.18
59877;BME280;45749;51.140;17.184;2022-10-31T03:35:21;100502.61;;;9.30;89.23
59877;BME280;45749;51.140;17.184;2022-10-31T03:37:49;100504.59;;;9.26;89.27
59877;BME280;45749;51.140;17.184;2022-10-31T03:40:19;100503.47;;;9.23;89.22
59877;BME280;45749;51.140;17.184;2022-10-31T03:42:54;100506.47;;;9.24;89.23
59877;BME280;45749;51.140;17.184;2022-10-31T03:45:21;100501.87;;;9.21;89.24
59877;BME280;45749;51.140;17.184;2022-10-31T03:47:53;100504.91;;;9.22;89.17
59877;BME280;45749;51.140;17.184;2022-10-31T03:50:21;100508.45;;;9.21;89.01
59877;BME280;45749;51.140;17.184;2022-10-31T03:53:26;100510.61;;;9.21;89.11
59877;BME280;45749;51.140;17.184;2022-10-31T03:55:50;100505.74;;;9.22;89.10
59877;BME280;45749;51.140;17.184;2022-10-31T03:58:21;100509.58;;;9.24;89.13
59877;BME280;45749;51.140;17.184;2022-10-31T04:00:54;100510.61;;;9.21;89.07
59877;BME280;45749;51.140;17.184;2022-10-31T04:03:24;100514.02;;;9.16;88.92
59877;BME280;45749;51.140;17.184;2022-10-31T04:05:54;100514.02;;;9.16;88.97
59877;BME280;45749;51.140;17.184;2022-10-31T04:08:26;100511.95;;;9.14;88.89
59877;BME280;45749;51.140;17.184;2022-10-31T04:10:56;100513.57;;;9.09;88.91
59877;BME280;45749;51.140;17.184;2022-10-31T04:13:26;100508.39;;;9.08;88.95
59877;BME280;45749;51.140;17.184;2022-10-31T04:15:55;100510.58;;;9.08;88.99
59877;BME280;45749;51.140;17.184;2022-10-31T04:18:24;100505.67;;;9.09;89.01
59877;BME280;45749;51.140;17.184;2022-10-31T04:21:04;100507.19;;;9.06;88.93
59877;BME280;45749;51.140;17.184;2022-10-31T04:23:28;100509.17;;;9.03;88.94
59877;BME280;45749;51.140;17.184;2022-10-31T04:25:55;100515.83;;;9.01;88.95
59877;BME280;45749;51.140;17.184;2022-10-31T04:28:21;100512.35;;;9.01;88.99
59877;BME280;45749;51.140;17.184;2022-10-31T04:30:48;100508.80;;;9.02;89.01
59877;BME280;45749;51.140;17.184;2022-10-31T04:33:14;100514.98;;;9.01;88.95
59877;BME280;45749;51.140;17.184;2022-10-31T04:35:40;100511.98;;;9.00;88.96
59877;BME280;45749;51.140;17.184;2022-10-31T04:38:06;100511.70;;;8.97;88.96
59877;BME280;45749;51.140;17.184;2022-10-31T04:40:32;100510.69;;;8.92;88.98
59877;BME280;45749;51.140;17.184;2022-10-31T04:42:58;100514.06;;;8.87;89.15
59877;BME280;45749;51.140;17.184;2022-10-31T04:45:24;100517.53;;;8.88;89.17
59877;BME280;45749;51.140;17.184;2022-10-31T04:47:50;100517.53;;;8.88;89.10
59877;BME280;45749;51.140;17.184;2022-10-31T04:50:16;100520.09;;;8.89;89.11
59877;BME280;45749;51.140;17.184;2022-10-31T04:52:43;100520.09;;;8.89;89.09
59877;BME280;45749;51.140;17.184;2022-10-31T04:55:11;100520.45;;;8.90;89.00
59877;BME280;45749;51.140;17.184;2022-10-31T04:57:42;100520.74;;;8.93;88.92
59877;BME280;45749;51.140;17.184;2022-10-31T05:00:10;100515.00;;;8.93;88.95
59877;BME280;45749;51.140;17.184;2022-10-31T05:02:45;100522.90;;;8.93;88.94
59877;BME280;45749;51.140;17.184;2022-10-31T05:05:14;100530.80;;;8.93;89.09
59877;BME280;45749;51.140;17.184;2022-10-31T05:07:42;100525.45;;;8.95;89.13
59877;BME280;45749;51.140;17.184;2022-10-31T05:10:11;100528.81;;;8.97;89.18
59877;BME280;45749;51.140;17.184;2022-10-31T05:12:47;100527.02;;;8.98;89.13
59877;BME280;45749;51.140;17.184;2022-10-31T05:15:15;100524.39;;;8.98;88.96
59877;BME280;45749;51.140;17.184;2022-10-31T05:17:42;100526.66;;;8.97;88.95
59877;BME280;45749;51.140;17.184;2022-10-31T05:20:10;100527.42;;;8.99;88.89
59877;BME280;45749;51.140;17.184;2022-10-31T05:22:36;100530.80;;;8.93;89.01
59877;BME280;45749;51.140;17.184;2022-10-31T05:25:03;100526.30;;;8.88;89.47
59877;BME280;45749;51.140;17.184;2022-10-31T05:27:29;100536.55;;;8.86;89.68
59877;BME280;45749;51.140;17.184;2022-10-31T05:29:55;100535.49;;;8.81;90.03
59877;BME280;45749;51.140;17.184;2022-10-31T05:32:21;100531.11;;;8.82;90.17
59877;BME280;45749;51.140;17.184;2022-10-31T05:34:46;100538.71;;;8.79;90.31
59877;BME280;45749;51.140;17.184;2022-10-31T05:37:12;100539.84;;;8.82;90.42
59877;BME280;45749;51.140;17.184;2022-10-31T05:39:38;100537.02;;;8.85;90.36
59877;BME280;45749;51.140;17.184;2022-10-31T05:42:04;100544.33;;;8.87;90.32
59877;BME280;45749;51.140;17.184;2022-10-31T05:44:30;100541.63;;;8.89;90.48
59877;BME280;45749;51.140;17.184;2022-10-31T05:46:56;100543.66;;;8.91;90.61
59877;BME280;45749;51.140;17.184;2022-10-31T05:49:22;100540.00;;;8.93;90.48
59877;BME280;45749;51.140;17.184;2022-10-31T05:51:48;100538.61;;;8.95;90.56
59877;BME280;45749;51.140;17.184;2022-10-31T05:54:14;100545.63;;;8.95;90.38
59877;BME280;45749;51.140;17.184;2022-10-31T05:56:40;100543.40;;;8.96;90.44
59877;BME280;45749;51.140;17.184;2022-10-31T05:59:06;100546.39;;;8.97;90.52
59877;BME280;45749;51.140;17.184;2022-10-31T06:01:32;100548.92;;;8.98;90.54
59877;BME280;45749;51.140;17.184;2022-10-31T06:03:58;100546.69;;;8.99;90.62
59877;BME280;45749;51.140;17.184;2022-10-31T06:06:24;100547.89;;;9.01;90.70
59877;BME280;45749;51.140;17.184;2022-10-31T06:08:49;100546.09;;;9.01;90.72
59877;BME280;45749;51.140;17.184;2022-10-31T06:11:15;100549.97;;;9.03;90.90
59877;BME280;45749;51.140;17.184;2022-10-31T06:13:41;100540.39;;;9.02;90.84
59877;BME280;45749;51.140;17.184;2022-10-31T06:16:07;100543.86;;;9.02;91.05
59877;BME280;45749;51.140;17.184;2022-10-31T06:18:33;100548.73;;;9.01;91.13
59877;BME280;45749;51.140;17.184;2022-10-31T06:20:59;100554.86;;;9.02;91.24
59877;BME280;45749;51.140;17.184;2022-10-31T06:23:25;100556.63;;;9.01;91.55
59877;BME280;45749;51.140;17.184;2022-10-31T06:25:51;100558.81;;;9.02;91.69
59877;BME280;45749;51.140;17.184;2022-10-31T06:28:17;100565.17;;;9.05;91.93
59877;BME280;45749;51.140;17.184;2022-10-31T06:30:43;100555.52;;;9.05;91.91
59877;BME280;45749;51.140;17.184;2022-10-31T06:33:08;100557.67;;;9.06;91.79
59877;BME280;45749;51.140;17.184;2022-10-31T06:35:34;100566.41;;;9.06;91.68
59877;BME280;45749;51.140;17.184;2022-10-31T06:38:00;100558.98;;;9.06;91.82
59877;BME280;45749;51.140;17.184;2022-10-31T06:40:26;100563.78;;;9.06;91.82
59877;BME280;45749;51.140;17.184;2022-10-31T06:43:00;100565.86;;;9.08;92.04
59877;BME280;45749;51.140;17.184;2022-10-31T06:45:26;100572.69;;;9.11;92.00
59877;BME280;45749;51.140;17.184;2022-10-31T06:47:53;100576.09;;;9.13;92.14
59877;BME280;45749;51.140;17.184;2022-10-31T06:50:21;100579.92;;;9.14;92.21
59877;BME280;45749;51.140;17.184;2022-10-31T06:52:56;100579.00;;;9.15;92.37
59877;BME280;45749;51.140;17.184;2022-10-31T06:55:24;100578.05;;;9.16;92.43
59877;BME280;45749;51.140;17.184;2022-10-31T06:57:56;100580.13;;;9.19;92.58
59877;BME280;45749;51.140;17.184;2022-10-31T07:00:24;100585.77;;;9.20;92.74
59877;BME280;45749;51.140;17.184;2022-10-31T07:02:59;100588.39;;;9.20;92.91
59877;BME280;45749;51.140;17.184;2022-10-31T07:05:27;100586.72;;;9.19;93.34
59877;BME280;45749;51.140;17.184;2022-10-31T07:07:55;100587.27;;;9.16;93.88
59877;BME280;45749;51.140;17.184;2022-10-31T07:10:24;100589.06;;;9.16;94.23
59877;BME280;45749;51.140;17.184;2022-10-31T07:12:58;100594.33;;;9.16;94.43
59877;BME280;45749;51.140;17.184;2022-10-31T07:15:26;100595.93;;;9.19;94.46
59877;BME280;45749;51.140;17.184;2022-10-31T07:17:53;100597.50;;;9.21;94.69
59877;BME280;45749;51.140;17.184;2022-10-31T07:20:19;100592.52;;;9.24;95.22
59877;BME280;45749;51.140;17.184;2022-10-31T07:22:45;100600.70;;;9.26;95.43
59877;BME280;45749;51.140;17.184;2022-10-31T07:25:11;100598.25;;;9.30;95.51
59877;BME280;45749;51.140;17.184;2022-10-31T07:27:38;100601.45;;;9.35;95.75
59877;BME280;45749;51.140;17.184;2022-10-31T07:30:07;100606.70;;;9.43;96.13
59877;BME280;45749;51.140;17.184;2022-10-31T07:32:39;100602.73;;;9.50;96.80
59877;BME280;45749;51.140;17.184;2022-10-31T07:35:10;100601.78;;;9.58;96.71
59877;BME280;45749;51.140;17.184;2022-10-31T07:37:37;100599.77;;;9.69;97.41
59877;BME280;45749;51.140;17.184;2022-10-31T07:40:05;100602.54;;;9.80;97.25
59877;BME280;45749;51.140;17.184;2022-10-31T07:42:39;100605.06;;;9.89;97.38
59877;BME280;45749;51.140;17.184;2022-10-31T07:45:10;100608.78;;;9.99;97.55
59877;BME280;45749;51.140;17.184;2022-10-31T07:47:42;100611.55;;;10.10;98.01
59877;BME280;45749;51.140;17.184;2022-10-31T07:50:18;100610.73;;;10.22;98.44
59877;BME280;45749;51.140;17.184;2022-10-31T07:52:45;100609.48;;;10.35;98.79
59877;BME280;45749;51.140;17.184;2022-10-31T07:55:12;100612.71;;;10.46;98.92
59877;BME280;45749;51.140;17.184;2022-10-31T07:57:39;100610.77;;;10.55;99.03
59877;BME280;45749;51.140;17.184;2022-10-31T08:00:08;100609.20;;;10.65;99.08
59877;BME280;45749;51.140;17.184;2022-10-31T08:02:36;100610.37;;;10.74;98.96
59877;BME280;45749;51.140;17.184;2022-10-31T08:05:02;100615.50;;;10.83;99.02
59877;BME280;45749;51.140;17.184;2022-10-31T08:07:28;100608.00;;;10.89;99.06
59877;BME280;45749;51.140;17.184;2022-10-31T08:09:55;100613.09;;;10.98;99.37
59877;BME280;45749;51.140;17.184;2022-10-31T08:12:21;100607.53;;;11.08;99.60
59877;BME280;45749;51.140;17.184;2022-10-31T08:14:47;100608.22;;;11.17;99.69
59877;BME280;45749;51.140;17.184;2022-10-31T08:17:13;100610.48;;;11.29;99.89
59877;BME280;45749;51.140;17.184;2022-10-31T08:19:40;100603.59;;;11.39;99.92
59877;BME280;45749;51.140;17.184;2022-10-31T08:22:05;100608.09;;;11.50;99.69
59877;BME280;45749;51.140;17.184;2022-10-31T08:24:31;100608.27;;;11.60;99.71
59877;BME280;45749;51.140;17.184;2022-10-31T08:26:57;100611.09;;;11.69;99.63
59877;BME280;45749;51.140;17.184;2022-10-31T08:29:23;100611.14;;;11.81;99.50
59877;BME280;45749;51.140;17.184;2022-10-31T08:31:49;100613.05;;;11.91;99.76
59877;BME280;45749;51.140;17.184;2022-10-31T08:34:15;100616.09;;;12.04;100.00
59877;BME280;45749;51.140;17.184;2022-10-31T08:36:41;100618.32;;;12.15;99.60
59877;BME280;45749;51.140;17.184;2022-10-31T08:39:09;100620.03;;;12.22;98.89
59877;BME280;45749;51.140;17.184;2022-10-31T08:41:35;100625.25;;;12.35;98.80
59877;BME280;45749;51.140;17.184;2022-10-31T08:44:01;100626.48;;;12.53;98.74
59877;BME280;45749;51.140;17.184;2022-10-31T08:46:27;100620.49;;;12.62;98.82
59877;BME280;45749;51.140;17.184;2022-10-31T08:48:53;100620.15;;;12.73;98.58
59877;BME280;45749;51.140;17.184;2022-10-31T08:51:19;100623.06;;;12.81;97.86
59877;BME280;45749;51.140;17.184;2022-10-31T08:53:45;100621.03;;;12.90;98.58
59877;BME280;45749;51.140;17.184;2022-10-31T08:56:20;100622.36;;;13.07;97.84
59877;BME280;45749;51.140;17.184;2022-10-31T08:58:58;100618.52;;;13.17;97.04
59877;BME280;45749;51.140;17.184;2022-10-31T09:01:25;100619.36;;;13.28;96.73
59877;BME280;45749;51.140;17.184;2022-10-31T09:03:51;100620.31;;;13.38;95.97
59877;BME280;45749;51.140;17.184;2022-10-31T09:06:17;100621.41;;;13.47;95.58
59877;BME280;45749;51.140;17.184;2022-10-31T09:08:43;100623.08;;;13.59;95.28
59877;BME280;45749;51.140;17.184;2022-10-31T09:11:09;100615.81;;;13.73;95.27
59877;BME280;45749;51.140;17.184;2022-10-31T09:13:34;100618.08;;;13.83;94.65
59877;BME280;45749;51.140;17.184;2022-10-31T09:16:00;100623.09;;;13.92;94.58
59877;BME280;45749;51.140;17.184;2022-10-31T09:18:26;100622.48;;;13.99;94.39
59877;BME280;45749;51.140;17.184;2022-10-31T09:20:53;100626.66;;;14.07;94.18
59877;BME280;45749;51.140;17.184;2022-10-31T09:23:21;100621.09;;;14.16;93.98
59877;BME280;45749;51.140;17.184;2022-10-31T09:25:49;100626.13;;;14.25;93.37
59877;BME280;45749;51.140;17.184;2022-10-31T09:28:19;100631.52;;;14.35;92.85
59877;BME280;45749;51.140;17.184;2022-10-31T09:30:48;100629.39;;;14.44;92.61
59877;BME280;45749;51.140;17.184;2022-10-31T09:33:16;100629.00;;;14.54;92.52
59877;BME280;45749;51.140;17.184;2022-10-31T09:35:43;100628.72;;;14.63;92.11
59877;BME280;45749;51.140;17.184;2022-10-31T09:38:14;100625.78;;;14.71;91.36
59877;BME280;45749;51.140;17.184;2022-10-31T09:40:55;100630.77;;;14.80;91.29
59877;BME280;45749;51.140;17.184;2022-10-31T09:43:45;100626.73;;;14.91;91.29
59877;BME280;45749;51.140;17.184;2022-10-31T09:51:51;100624.24;;;15.30;91.13
59877;BME280;45749;51.140;17.184;2022-10-31T09:54:24;100625.45;;;15.41;90.45
59877;BME280;45749;51.140;17.184;2022-10-31T09:57:03;100625.27;;;15.48;90.53
59877;BME280;45749;51.140;17.184;2022-10-31T09:59:37;100625.17;;;15.60;89.95
59877;BME280;45749;51.140;17.184;2022-10-31T10:05:11;100612.90;;;15.78;90.34
59877;BME280;45749;51.140;17.184;2022-10-31T10:27:49;100621.77;;;16.70;88.18
59877;BME280;45749;51.140;17.184;2022-10-31T10:30:21;100617.77;;;16.80;87.57
59877;BME280;45749;51.140;17.184;2022-10-31T10:32:56;100611.79;;;16.92;87.72
59877;BME280;45749;51.140;17.184;2022-10-31T10:35:33;100613.42;;;17.02;87.17
59877;BME280;45749;51.140;17.184;2022-10-31T10:38:13;100611.02;;;17.09;86.75
59877;BME280;45749;51.140;17.184;2022-10-31T10:40:39;100608.31;;;17.19;86.85
59877;BME280;45749;51.140;17.184;2022-10-31T10:43:30;100586.19;;;17.22;86.10
59877;BME280;45749;51.140;17.184;2022-10-31T10:49:16;100607.27;;;17.43;85.94
59877;BME280;45749;51.140;17.184;2022-10-31T11:00:21;100594.05;;;17.83;84.43
59877;BME280;45749;51.140;17.184;2022-10-31T11:02:48;100597.14;;;17.92;84.65
59877;BME280;45749;51.140;17.184;2022-10-31T11:08:35;100596.85;;;18.13;84.21
59877;BME280;45749;51.140;17.184;2022-10-31T11:11:14;100592.27;;;18.23;83.71
59877;BME280;45749;51.140;17.184;2022-10-31T11:13:51;100596.98;;;18.30;83.18
59877;BME280;45749;51.140;17.184;2022-10-31T11:16:30;100596.65;;;18.33;83.21
59877;BME280;45749;51.140;17.184;2022-10-31T11:19:20;100595.39;;;18.41;83.48
59877;BME280;45749;51.140;17.184;2022-10-31T11:21:49;100593.94;;;18.46;82.51
59877;BME280;45749;51.140;17.184;2022-10-31T11:24:18;100591.80;;;18.50;82.08
59877;BME280;45749;51.140;17.184;2022-10-31T11:26:50;100590.48;;;18.54;82.63
59877;BME280;45749;51.140;17.184;2022-10-31T11:29:24;100586.68;;;18.61;82.85
59877;BME280;45749;51.140;17.184;2022-10-31T11:31:53;100585.55;;;18.67;81.90
59877;BME280;45749;51.140;17.184;2022-10-31T11:34:37;100579.44;;;18.75;82.45
59877;BME280;45749;51.140;17.184;2022-10-31T11:37:24;100581.84;;;18.82;81.71
59877;BME280;45749;51.140;17.184;2022-10-31T11:40:04;100583.53;;;18.87;81.02
59877;BME280;45749;51.140;17.184;2022-10-31T11:42:41;100577.69;;;18.92;81.67
59877;BME280;45749;51.140;17.184;2022-10-31T11:47:58;100573.09;;;19.06;81.09
59877;BME280;45749;51.140;17.184;2022-10-31T11:50:31;100568.78;;;19.13;81.19
59877;BME280;45749;51.140;17.184;2022-10-31T11:52:58;100568.28;;;19.18;81.14
59877;BME280;45749;51.140;17.184;2022-10-31T11:55:37;100571.47;;;19.21;81.08
59877;BME280;45749;51.140;17.184;2022-10-31T11:58:20;100568.00;;;19.25;80.23
59877;BME280;45749;51.140;17.184;2022-10-31T12:00:54;100570.36;;;19.28;79.94
59877;BME280;45749;51.140;17.184;2022-10-31T12:03:48;100569.53;;;19.32;79.46
59877;BME280;45749;51.140;17.184;2022-10-31T12:06:22;100567.88;;;19.35;79.97
59877;BME280;45749;51.140;17.184;2022-10-31T12:08:50;100566.68;;;19.37;79.38
59877;BME280;45749;51.140;17.184;2022-10-31T12:11:31;100567.04;;;19.38;79.29
59877;BME280;45749;51.140;17.184;2022-10-31T12:25:53;100564.88;;;19.42;78.06
59877;BME280;45749;51.140;17.184;2022-10-31T12:43:44;100554.03;;;19.56;77.85
59877;BME280;45749;51.140;17.184;2022-10-31T12:46:21;100551.86;;;19.59;77.73
59877;BME280;45749;51.140;17.184;2022-10-31T12:49:02;100548.53;;;19.61;77.31
59877;BME280;45749;51.140;17.184;2022-10-31T12:51:48;100555.91;;;19.63;77.24
59877;BME280;45749;51.140;17.184;2022-10-31T13:00:13;100554.23;;;19.71;77.03
59877;BME280;45749;51.140;17.184;2022-10-31T13:05:48;100544.55;;;19.70;76.61
59877;BME280;45749;51.140;17.184;2022-10-31T13:08:35;100545.56;;;19.68;76.49
59877;BME280;45749;51.140;17.184;2022-10-31T13:12:09;100543.72;;;19.69;76.91
59877;BME280;45749;51.140;17.184;2022-10-31T13:14:30;100546.06;;;19.72;77.01
59877;BME280;45749;51.140;17.184;2022-10-31T13:16:58;100542.37;;;19.73;77.09
59877;BME280;45749;51.140;17.184;2022-10-31T13:19:38;100543.20;;;19.74;76.87
59877;BME280;45749;51.140;17.184;2022-10-31T13:22:18;100534.16;;;19.71;76.84
59877;BME280;45749;51.140;17.184;2022-10-31T13:24:59;100532.68;;;19.68;76.95
59877;BME280;45749;51.140;17.184;2022-10-31T13:30:38;100532.50;;;19.65;77.06
59877;BME280;45749;51.140;17.184;2022-10-31T13:33:19;100530.33;;;19.65;77.01
59877;BME280;45749;51.140;17.184;2022-10-31T13:36:07;100531.48;;;19.66;76.57
59877;BME280;45749;51.140;17.184;2022-10-31T13:44:22;100523.45;;;19.71;76.73
59877;BME280;45749;51.140;17.184;2022-10-31T13:46:51;100523.30;;;19.72;76.98
59877;BME280;45749;51.140;17.184;2022-10-31T13:54:47;100513.11;;;19.72;77.07
59877;BME280;45749;51.140;17.184;2022-10-31T14:00:05;100511.26;;;19.72;76.87
59877;BME280;45749;51.140;17.184;2022-10-31T14:02:31;100515.27;;;19.72;76.55
59877;BME280;45749;51.140;17.184;2022-10-31T14:05:04;100516.11;;;19.73;76.94
59877;BME280;45749;51.140;17.184;2022-10-31T14:07:33;100517.12;;;19.76;77.13
59877;BME280;45749;51.140;17.184;2022-10-31T14:10:05;100514.26;;;19.77;76.92
59877;BME280;45749;51.140;17.184;2022-10-31T14:12:42;100512.45;;;19.78;76.68
59877;BME280;45749;51.140;17.184;2022-10-31T14:17:55;100513.27;;;19.78;76.78
59877;BME280;45749;51.140;17.184;2022-10-31T14:20:26;100509.92;;;19.76;76.56
59877;BME280;45749;51.140;17.184;2022-10-31T14:22:58;100511.91;;;19.74;76.56
59877;BME280;45749;51.140;17.184;2022-10-31T14:25:33;100507.42;;;19.75;76.61
59877;BME280;45749;51.140;17.184;2022-10-31T14:28:18;100503.41;;;19.75;76.60
59877;BME280;45749;51.140;17.184;2022-10-31T14:30:55;100505.06;;;19.76;76.52
59877;BME280;45749;51.140;17.184;2022-10-31T14:33:25;100505.91;;;19.76;76.74
59877;BME280;45749;51.140;17.184;2022-10-31T14:52:46;100499.02;;;19.61;76.52
59877;BME280;45749;51.140;17.184;2022-10-31T14:55:15;100498.16;;;19.53;76.17
59877;BME280;45749;51.140;17.184;2022-10-31T14:57:49;100499.82;;;19.45;76.41
59877;BME280;45749;51.140;17.184;2022-10-31T15:00:19;100496.14;;;19.42;76.63
59877;BME280;45749;51.140;17.184;2022-10-31T15:03:14;100497.30;;;19.40;76.81
59877;BME280;45749;51.140;17.184;2022-10-31T15:05:49;100495.63;;;19.35;76.85
59877;BME280;45749;51.140;17.184;2022-10-31T15:11:17;100495.41;;;19.24;76.98
59877;BME280;45749;51.140;17.184;2022-10-31T15:13:47;100500.25;;;19.16;76.96
59877;BME280;45749;51.140;17.184;2022-10-31T15:16:21;100507.26;;;19.09;76.92
59877;BME280;45749;51.140;17.184;2022-10-31T15:18:58;100504.54;;;19.01;77.04
59877;BME280;45749;51.140;17.184;2022-10-31T15:21:27;100506.88;;;18.96;77.07
59877;BME280;45749;51.140;17.184;2022-10-31T15:23:56;100504.33;;;18.86;77.10
59877;BME280;45749;51.140;17.184;2022-10-31T15:26:32;100507.78;;;18.79;77.10
59877;BME280;45749;51.140;17.184;2022-10-31T15:29:04;100508.05;;;18.71;77.00
59877;BME280;45749;51.140;17.184;2022-10-31T15:31:31;100507.02;;;18.64;76.56